AAL2172 KIND-KCLT
Flight info
| Callsign | AAL2172 |
|---|---|
| Flight time | 1h 2m |
| Altitude | 33000 |
| Route | DAWNN1 IIU TAFTT PARQR4 |
| Aircraft | A21N/M-SDE2E3FGHIRWXY/LB1 |
Departure
| Time | 2026-05-07 02:20 |
|---|---|
| Airport | Indianapolis International Airport (KIND) |
Arrival
| Time | 2026-05-07 03:22 |
|---|---|
| Airport | Charlotte Douglas International Airport (KCLT) |
| Time | Latitude | Longitude | Altitude | Speed | Heading |
|---|---|---|---|---|---|
| 2026-05-07 01:42 | 39.71719 | -86.29838 | 786 ft | 0 kts | 133° |
| 2026-05-07 02:06 | 39.71722 | -86.29842 | 895 ft | 2 kts | 133° |
| 2026-05-07 02:06 | 39.71733 | -86.29857 | 784 ft | 2 kts | 133° |
| 2026-05-07 02:06 | 39.71744 | -86.29873 | 784 ft | 2 kts | 134° |
| 2026-05-07 02:07 | 39.71753 | -86.29891 | 784 ft | 2 kts | 97° |
| 2026-05-07 02:07 | 39.71745 | -86.29931 | 784 ft | 2 kts | 41° |
| 2026-05-07 02:07 | 39.71738 | -86.29939 | 784 ft | 0 kts | 41° |
| 2026-05-07 02:14 | 39.71744 | -86.29932 | 784 ft | 4 kts | 41° |
| 2026-05-07 02:14 | 39.71776 | -86.29901 | 784 ft | 7 kts | 28° |
| 2026-05-07 02:14 | 39.71859 | -86.29853 | 784 ft | 17 kts | 24° |
| 2026-05-07 02:15 | 39.71969 | -86.29783 | 784 ft | 18 kts | 34° |
| 2026-05-07 02:15 | 39.72069 | -86.29678 | 784 ft | 21 kts | 38° |
| 2026-05-07 02:15 | 39.72192 | -86.29616 | 784 ft | 19 kts | 330° |
| 2026-05-07 02:15 | 39.72274 | -86.29694 | 784 ft | 5 kts | 9° |
| 2026-05-07 02:16 | 39.72330 | -86.29628 | 784 ft | 18 kts | 44° |
| 2026-05-07 02:16 | 39.72397 | -86.29541 | 784 ft | 13 kts | 44° |
| 2026-05-07 02:16 | 39.72462 | -86.29459 | 784 ft | 13 kts | 44° |
| 2026-05-07 02:16 | 39.72531 | -86.29371 | 784 ft | 16 kts | 44° |
| 2026-05-07 02:17 | 39.72615 | -86.29263 | 784 ft | 16 kts | 45° |
| 2026-05-07 02:17 | 39.72700 | -86.29175 | 784 ft | 15 kts | 5° |
| 2026-05-07 02:17 | 39.72782 | -86.29247 | 784 ft | 15 kts | 315° |
| 2026-05-07 02:17 | 39.72793 | -86.29342 | 782 ft | 11 kts | 223° |
| 2026-05-07 02:18 | 39.72784 | -86.29353 | 782 ft | 0 kts | 224° |
| 2026-05-07 02:19 | 39.72695 | -86.29464 | 782 ft | 46 kts | 224° |
| 2026-05-07 02:19 | 39.72315 | -86.29948 | 784 ft | 107 kts | 224° |
| 2026-05-07 02:19 | 39.71632 | -86.30817 | 784 ft | 166 kts | 225° |
| 2026-05-07 02:19 | 39.70776 | -86.31902 | 1219 ft | 172 kts | 225° |
| 2026-05-07 02:20 | 39.69906 | -86.33025 | 1824 ft | 177 kts | 227° |
| 2026-05-07 02:20 | 39.69021 | -86.34181 | 2358 ft | 188 kts | 227° |
| 2026-05-07 02:20 | 39.68036 | -86.35469 | 2601 ft | 214 kts | 227° |
| 2026-05-07 02:20 | 39.66927 | -86.36912 | 2867 ft | 237 kts | 227° |
| 2026-05-07 02:21 | 39.65700 | -86.38499 | 3197 ft | 260 kts | 227° |
| 2026-05-07 02:21 | 39.64372 | -86.40212 | 3722 ft | 276 kts | 227° |
| 2026-05-07 02:21 | 39.63008 | -86.41963 | 4755 ft | 273 kts | 228° |
| 2026-05-07 02:21 | 39.61681 | -86.43665 | 5972 ft | 262 kts | 228° |
| 2026-05-07 02:22 | 39.60413 | -86.45290 | 7197 ft | 253 kts | 228° |
| 2026-05-07 02:22 | 39.59158 | -86.46905 | 8069 ft | 257 kts | 229° |
| 2026-05-07 02:22 | 39.57879 | -86.48551 | 8876 ft | 262 kts | 229° |
| 2026-05-07 02:22 | 39.56580 | -86.50223 | 9748 ft | 265 kts | 229° |
| 2026-05-07 02:23 | 39.55229 | -86.51904 | 10355 ft | 278 kts | 224° |
| 2026-05-07 02:23 | 39.53524 | -86.53317 | 10664 ft | 307 kts | 207° |
| 2026-05-07 02:23 | 39.51331 | -86.53870 | 10978 ft | 340 kts | 182° |
| 2026-05-07 02:23 | 39.48941 | -86.53359 | 11649 ft | 353 kts | 173° |
| 2026-05-07 02:24 | 39.46543 | -86.52564 | 12371 ft | 359 kts | 172° |
| 2026-05-07 02:24 | 39.44125 | -86.51722 | 12776 ft | 360 kts | 172° |
| 2026-05-07 02:24 | 39.41694 | -86.50887 | 13287 ft | 364 kts | 172° |
| 2026-05-07 02:24 | 39.39246 | -86.50055 | 14102 ft | 364 kts | 173° |
| 2026-05-07 02:25 | 39.36788 | -86.49226 | 14770 ft | 367 kts | 174° |
| 2026-05-07 02:25 | 39.34302 | -86.48394 | 15376 ft | 371 kts | 174° |
| 2026-05-07 02:25 | 39.31783 | -86.47553 | 15990 ft | 376 kts | 174° |
| 2026-05-07 02:25 | 39.29239 | -86.46705 | 16615 ft | 380 kts | 175° |
| 2026-05-07 02:26 | 39.26671 | -86.45850 | 17274 ft | 382 kts | 175° |
| 2026-05-07 02:26 | 39.24115 | -86.45002 | 17865 ft | 387 kts | 175° |
| 2026-05-07 02:26 | 39.21492 | -86.44134 | 18419 ft | 391 kts | 175° |
| 2026-05-07 02:26 | 39.18872 | -86.43051 | 18957 ft | 403 kts | 167° |
| 2026-05-07 02:27 | 39.16383 | -86.41221 | 19508 ft | 423 kts | 151° |
| 2026-05-07 02:27 | 39.14306 | -86.38402 | 20038 ft | 446 kts | 133° |
| 2026-05-07 02:27 | 39.12662 | -86.34962 | 20550 ft | 455 kts | 127° |
| 2026-05-07 02:27 | 39.11128 | -86.31373 | 21010 ft | 460 kts | 126° |
| 2026-05-07 02:28 | 39.09595 | -86.27742 | 21475 ft | 463 kts | 126° |
| 2026-05-07 02:28 | 39.08047 | -86.24093 | 21910 ft | 466 kts | 127° |
| 2026-05-07 02:28 | 39.06485 | -86.20417 | 22349 ft | 470 kts | 127° |
| 2026-05-07 02:28 | 39.04907 | -86.16719 | 22616 ft | 475 kts | 127° |
| 2026-05-07 02:29 | 39.03306 | -86.12985 | 22922 ft | 481 kts | 127° |
| 2026-05-07 02:29 | 39.01682 | -86.09203 | 23337 ft | 483 kts | 127° |
| 2026-05-07 02:29 | 39.00049 | -86.05407 | 23696 ft | 486 kts | 127° |
| 2026-05-07 02:29 | 38.98407 | -86.01594 | 24002 ft | 490 kts | 127° |
| 2026-05-07 02:30 | 38.96749 | -85.97753 | 24306 ft | 493 kts | 127° |
| 2026-05-07 02:30 | 38.95083 | -85.93896 | 24615 ft | 496 kts | 127° |
| 2026-05-07 02:30 | 38.93402 | -85.90011 | 24915 ft | 499 kts | 127° |
| 2026-05-07 02:30 | 38.91711 | -85.86109 | 25224 ft | 502 kts | 127° |
| 2026-05-07 02:31 | 38.90007 | -85.82181 | 25534 ft | 505 kts | 127° |
| 2026-05-07 02:31 | 38.88295 | -85.78240 | 25836 ft | 508 kts | 127° |
| 2026-05-07 02:31 | 38.86575 | -85.74285 | 26132 ft | 510 kts | 127° |
| 2026-05-07 02:31 | 38.84841 | -85.70304 | 26418 ft | 513 kts | 127° |
| 2026-05-07 02:32 | 38.83096 | -85.66304 | 26706 ft | 516 kts | 127° |
| 2026-05-07 02:32 | 38.81339 | -85.62279 | 26994 ft | 519 kts | 127° |
| 2026-05-07 02:32 | 38.79571 | -85.58234 | 27257 ft | 521 kts | 127° |
| 2026-05-07 02:32 | 38.77794 | -85.54174 | 27518 ft | 524 kts | 127° |
| 2026-05-07 02:33 | 38.76008 | -85.50099 | 27774 ft | 526 kts | 127° |
| 2026-05-07 02:33 | 38.74210 | -85.46003 | 28018 ft | 529 kts | 127° |
| 2026-05-07 02:33 | 38.72403 | -85.41890 | 28232 ft | 531 kts | 127° |
| 2026-05-07 02:33 | 38.70587 | -85.37764 | 28498 ft | 533 kts | 127° |
| 2026-05-07 02:34 | 38.68763 | -85.33624 | 28750 ft | 535 kts | 127° |
| 2026-05-07 02:34 | 38.66934 | -85.29475 | 29084 ft | 535 kts | 127° |
| 2026-05-07 02:34 | 38.65105 | -85.25332 | 29422 ft | 535 kts | 127° |
| 2026-05-07 02:34 | 38.63276 | -85.21194 | 29753 ft | 535 kts | 127° |
| 2026-05-07 02:35 | 38.61444 | -85.17052 | 30064 ft | 535 kts | 127° |
| 2026-05-07 02:35 | 38.59612 | -85.12916 | 30332 ft | 536 kts | 128° |
| 2026-05-07 02:35 | 38.57772 | -85.08775 | 30601 ft | 536 kts | 128° |
| 2026-05-07 02:35 | 38.55925 | -85.04637 | 30861 ft | 536 kts | 128° |
| 2026-05-07 02:36 | 38.54078 | -85.00493 | 31070 ft | 537 kts | 127° |
| 2026-05-07 02:36 | 38.52227 | -84.96343 | 31329 ft | 538 kts | 127° |
| 2026-05-07 02:36 | 38.50373 | -84.92191 | 31606 ft | 538 kts | 128° |
| 2026-05-07 02:36 | 38.48519 | -84.88037 | 31862 ft | 539 kts | 127° |
| 2026-05-07 02:37 | 38.46660 | -84.83874 | 32130 ft | 539 kts | 128° |
| 2026-05-07 02:37 | 38.44800 | -84.79721 | 32342 ft | 540 kts | 128° |
| 2026-05-07 02:37 | 38.42931 | -84.75558 | 32594 ft | 541 kts | 128° |
| 2026-05-07 02:37 | 38.41084 | -84.71450 | 32802 ft | 542 kts | 128° |
| 2026-05-07 02:38 | 38.37332 | -84.63118 | 32826 ft | 541 kts | 128° |
| 2026-05-07 02:38 | 38.33582 | -84.54810 | 32830 ft | 541 kts | 128° |
| 2026-05-07 02:39 | 38.29826 | -84.46508 | 32825 ft | 541 kts | 128° |
| 2026-05-07 02:39 | 38.26065 | -84.38219 | 32823 ft | 541 kts | 128° |
| 2026-05-07 02:40 | 38.22297 | -84.29935 | 32813 ft | 541 kts | 128° |
| 2026-05-07 02:40 | 38.18525 | -84.21665 | 32835 ft | 540 kts | 128° |
| 2026-05-07 02:41 | 38.14755 | -84.13421 | 32846 ft | 540 kts | 128° |
| 2026-05-07 02:41 | 38.10976 | -84.05179 | 32868 ft | 540 kts | 128° |
| 2026-05-07 02:42 | 38.07192 | -83.96944 | 32871 ft | 540 kts | 128° |
| 2026-05-07 02:42 | 38.03832 | -83.89650 | 32858 ft | 540 kts | 128° |
| 2026-05-07 02:43 | 38.00040 | -83.81440 | 32850 ft | 538 kts | 128° |
| 2026-05-07 02:43 | 37.96254 | -83.73262 | 32779 ft | 538 kts | 128° |
| 2026-05-07 02:44 | 37.92463 | -83.65104 | 32783 ft | 538 kts | 128° |
| 2026-05-07 02:44 | 37.88672 | -83.56938 | 32784 ft | 538 kts | 128° |
| 2026-05-07 02:45 | 37.84870 | -83.48788 | 32785 ft | 537 kts | 128° |
| 2026-05-07 02:45 | 37.81072 | -83.40662 | 32794 ft | 536 kts | 128° |
| 2026-05-07 02:46 | 37.77912 | -83.33923 | 32794 ft | 536 kts | 128° |
| 2026-05-07 02:46 | 37.74104 | -83.25819 | 32794 ft | 535 kts | 128° |
| 2026-05-07 02:47 | 37.70307 | -83.17759 | 32795 ft | 534 kts | 128° |
| 2026-05-07 02:47 | 37.66504 | -83.09709 | 32793 ft | 534 kts | 127° |
| 2026-05-07 02:48 | 37.62698 | -83.01667 | 32791 ft | 534 kts | 127° |
| 2026-05-07 02:48 | 37.58885 | -82.93620 | 32812 ft | 534 kts | 128° |
| 2026-05-07 02:49 | 37.55024 | -82.85636 | 32824 ft | 530 kts | 133° |
| 2026-05-07 02:49 | 37.52751 | -82.82086 | 32622 ft | 512 kts | 142° |
| 2026-05-07 02:49 | 37.50257 | -82.78907 | 32383 ft | 510 kts | 144° |
| 2026-05-07 02:50 | 37.47706 | -82.75792 | 32099 ft | 512 kts | 143° |
| 2026-05-07 02:50 | 37.45143 | -82.72669 | 31849 ft | 513 kts | 143° |
| 2026-05-07 02:50 | 37.42584 | -82.69573 | 31600 ft | 510 kts | 144° |
| 2026-05-07 02:50 | 37.40038 | -82.66480 | 31361 ft | 507 kts | 143° |
| 2026-05-07 02:51 | 37.37515 | -82.63388 | 31117 ft | 505 kts | 142° |
| 2026-05-07 02:51 | 37.35020 | -82.60298 | 30872 ft | 502 kts | 143° |
| 2026-05-07 02:51 | 37.32523 | -82.57235 | 30624 ft | 500 kts | 143° |
| 2026-05-07 02:51 | 37.30018 | -82.54213 | 30384 ft | 499 kts | 143° |
| 2026-05-07 02:52 | 37.27543 | -82.51186 | 30158 ft | 493 kts | 142° |
| 2026-05-07 02:52 | 37.25107 | -82.48196 | 29935 ft | 488 kts | 142° |
| 2026-05-07 02:52 | 37.20255 | -82.42237 | 29844 ft | 489 kts | 142° |
| 2026-05-07 02:53 | 37.15367 | -82.36295 | 29846 ft | 492 kts | 143° |
| 2026-05-07 02:53 | 37.10427 | -82.30328 | 29839 ft | 496 kts | 143° |
| 2026-05-07 02:54 | 37.05454 | -82.24330 | 29852 ft | 495 kts | 145° |
| 2026-05-07 02:54 | 37.02802 | -82.21668 | 29862 ft | 483 kts | 156° |
| 2026-05-07 02:54 | 36.99951 | -82.19503 | 29862 ft | 478 kts | 160° |
| 2026-05-07 02:55 | 36.94133 | -82.15469 | 29877 ft | 476 kts | 159° |
| 2026-05-07 02:55 | 36.88364 | -82.11473 | 29877 ft | 474 kts | 160° |
| 2026-05-07 02:56 | 36.85471 | -82.09485 | 29310 ft | 476 kts | 159° |
| 2026-05-07 02:56 | 36.82561 | -82.07487 | 28174 ft | 477 kts | 159° |
| 2026-05-07 02:56 | 36.79656 | -82.05496 | 27175 ft | 472 kts | 159° |
| 2026-05-07 02:56 | 36.76864 | -82.03570 | 26998 ft | 458 kts | 159° |
| 2026-05-07 02:57 | 36.74074 | -82.01653 | 26850 ft | 449 kts | 159° |
| 2026-05-07 02:57 | 36.71369 | -81.99808 | 26595 ft | 449 kts | 158° |
| 2026-05-07 02:57 | 36.68630 | -81.97937 | 26344 ft | 448 kts | 158° |
| 2026-05-07 02:57 | 36.65905 | -81.96075 | 26080 ft | 446 kts | 158° |
| 2026-05-07 02:58 | 36.63191 | -81.94220 | 25819 ft | 444 kts | 158° |
| 2026-05-07 02:58 | 36.60489 | -81.92377 | 25553 ft | 442 kts | 158° |
| 2026-05-07 02:58 | 36.57794 | -81.90540 | 25301 ft | 441 kts | 158° |
| 2026-05-07 02:58 | 36.55113 | -81.88711 | 24999 ft | 439 kts | 158° |
| 2026-05-07 02:59 | 36.52440 | -81.86888 | 24736 ft | 437 kts | 158° |
| 2026-05-07 02:59 | 36.49782 | -81.85075 | 24479 ft | 435 kts | 158° |
| 2026-05-07 02:59 | 36.47130 | -81.83272 | 24229 ft | 434 kts | 158° |
| 2026-05-07 02:59 | 36.44492 | -81.81480 | 23984 ft | 430 kts | 158° |
| 2026-05-07 03:00 | 36.41887 | -81.79709 | 23661 ft | 426 kts | 158° |
| 2026-05-07 03:00 | 36.39288 | -81.77948 | 23044 ft | 422 kts | 158° |
| 2026-05-07 03:00 | 36.36734 | -81.76211 | 22348 ft | 415 kts | 157° |
| 2026-05-07 03:00 | 36.34217 | -81.74507 | 21566 ft | 409 kts | 158° |
| 2026-05-07 03:01 | 36.31727 | -81.72829 | 20998 ft | 404 kts | 158° |
| 2026-05-07 03:01 | 36.29281 | -81.71177 | 20352 ft | 396 kts | 158° |
| 2026-05-07 03:01 | 36.26874 | -81.69550 | 19785 ft | 394 kts | 157° |
| 2026-05-07 03:01 | 36.24483 | -81.67923 | 19221 ft | 389 kts | 158° |
| 2026-05-07 03:02 | 36.22118 | -81.66331 | 18657 ft | 387 kts | 158° |
| 2026-05-07 03:02 | 36.19760 | -81.64747 | 18038 ft | 382 kts | 157° |
| 2026-05-07 03:02 | 36.17472 | -81.63208 | 17480 ft | 378 kts | 158° |
| 2026-05-07 03:02 | 36.15161 | -81.61655 | 16937 ft | 378 kts | 158° |
| 2026-05-07 03:03 | 36.12830 | -81.60093 | 16400 ft | 372 kts | 158° |
| 2026-05-07 03:03 | 36.10575 | -81.58581 | 15650 ft | 366 kts | 158° |
| 2026-05-07 03:03 | 36.08374 | -81.57109 | 14860 ft | 363 kts | 158° |
| 2026-05-07 03:03 | 36.06175 | -81.55633 | 14113 ft | 358 kts | 158° |
| 2026-05-07 03:04 | 36.03999 | -81.54147 | 13796 ft | 359 kts | 157° |
| 2026-05-07 03:04 | 36.01810 | -81.52662 | 13553 ft | 358 kts | 158° |
| 2026-05-07 03:04 | 35.99626 | -81.51208 | 13293 ft | 355 kts | 158° |
| 2026-05-07 03:04 | 35.97470 | -81.49769 | 13033 ft | 353 kts | 157° |
| 2026-05-07 03:05 | 35.95318 | -81.48315 | 12784 ft | 352 kts | 158° |
| 2026-05-07 03:05 | 35.93171 | -81.46891 | 12523 ft | 350 kts | 158° |
| 2026-05-07 03:05 | 35.91022 | -81.45477 | 12269 ft | 349 kts | 158° |
| 2026-05-07 03:05 | 35.88892 | -81.44061 | 12016 ft | 347 kts | 158° |
| 2026-05-07 03:06 | 35.86768 | -81.42646 | 11764 ft | 346 kts | 158° |
| 2026-05-07 03:06 | 35.84700 | -81.41261 | 11682 ft | 332 kts | 158° |
| 2026-05-07 03:06 | 35.82714 | -81.39928 | 11555 ft | 320 kts | 158° |
| 2026-05-07 03:06 | 35.80765 | -81.38630 | 11443 ft | 318 kts | 158° |
| 2026-05-07 03:07 | 35.78815 | -81.37333 | 11333 ft | 319 kts | 158° |
| 2026-05-07 03:07 | 35.76881 | -81.35999 | 11153 ft | 319 kts | 157° |
| 2026-05-07 03:07 | 35.74955 | -81.34645 | 10989 ft | 318 kts | 156° |
| 2026-05-07 03:07 | 35.73041 | -81.33295 | 10958 ft | 317 kts | 156° |
| 2026-05-07 03:08 | 35.71126 | -81.31945 | 10960 ft | 318 kts | 156° |
| 2026-05-07 03:08 | 35.69193 | -81.30583 | 10958 ft | 320 kts | 156° |
| 2026-05-07 03:08 | 35.67283 | -81.29199 | 10975 ft | 319 kts | 155° |
| 2026-05-07 03:08 | 35.65544 | -81.27482 | 10947 ft | 326 kts | 133° |
| 2026-05-07 03:09 | 35.64557 | -81.25038 | 10944 ft | 315 kts | 101° |
| 2026-05-07 03:09 | 35.64468 | -81.22435 | 10952 ft | 298 kts | 86° |
| 2026-05-07 03:09 | 35.64638 | -81.19937 | 10955 ft | 290 kts | 83° |
| 2026-05-07 03:09 | 35.64843 | -81.17490 | 10716 ft | 287 kts | 83° |
| 2026-05-07 03:10 | 35.65041 | -81.15307 | 10495 ft | 287 kts | 83° |
| 2026-05-07 03:10 | 35.65263 | -81.12870 | 10275 ft | 285 kts | 83° |
| 2026-05-07 03:10 | 35.65478 | -81.10465 | 10083 ft | 282 kts | 83° |
| 2026-05-07 03:10 | 35.65688 | -81.08070 | 9845 ft | 282 kts | 83° |
| 2026-05-07 03:11 | 35.65896 | -81.05676 | 9596 ft | 281 kts | 83° |
| 2026-05-07 03:11 | 35.66101 | -81.03295 | 9342 ft | 280 kts | 84° |
| 2026-05-07 03:11 | 35.66305 | -81.00915 | 9086 ft | 279 kts | 84° |
| 2026-05-07 03:11 | 35.66507 | -80.98553 | 8836 ft | 277 kts | 84° |
| 2026-05-07 03:12 | 35.66669 | -80.96199 | 8587 ft | 276 kts | 93° |
| 2026-05-07 03:12 | 35.66213 | -80.93970 | 8357 ft | 266 kts | 124° |
| 2026-05-07 03:12 | 35.65025 | -80.92347 | 8108 ft | 250 kts | 155° |
| 2026-05-07 03:12 | 35.63465 | -80.91685 | 7754 ft | 230 kts | 185° |
| 2026-05-07 03:13 | 35.61920 | -80.91896 | 7397 ft | 221 kts | 199° |
| 2026-05-07 03:13 | 35.60452 | -80.92353 | 7024 ft | 220 kts | 201° |
| 2026-05-07 03:13 | 35.58984 | -80.92851 | 6597 ft | 218 kts | 201° |
| 2026-05-07 03:13 | 35.57528 | -80.93361 | 6170 ft | 216 kts | 202° |
| 2026-05-07 03:14 | 35.56105 | -80.93870 | 5845 ft | 210 kts | 202° |
| 2026-05-07 03:14 | 35.54698 | -80.94371 | 5560 ft | 206 kts | 202° |
| 2026-05-07 03:14 | 35.51987 | -80.95333 | 5018 ft | 203 kts | 202° |
| 2026-05-07 03:15 | 35.50640 | -80.95819 | 4762 ft | 200 kts | 202° |
| 2026-05-07 03:15 | 35.49310 | -80.96298 | 4481 ft | 198 kts | 202° |
| 2026-05-07 03:15 | 35.47995 | -80.96773 | 4201 ft | 197 kts | 202° |
| 2026-05-07 03:15 | 35.46663 | -80.97171 | 3932 ft | 199 kts | 194° |
| 2026-05-07 03:16 | 35.45272 | -80.97245 | 3673 ft | 202 kts | 186° |
| 2026-05-07 03:16 | 35.43868 | -80.97141 | 3483 ft | 202 kts | 183° |
| 2026-05-07 03:16 | 35.42486 | -80.97007 | 3328 ft | 195 kts | 183° |
| 2026-05-07 03:16 | 35.41148 | -80.96885 | 3167 ft | 192 kts | 184° |
| 2026-05-07 03:17 | 35.39808 | -80.96772 | 3024 ft | 194 kts | 184° |
| 2026-05-07 03:17 | 35.38462 | -80.96662 | 2987 ft | 192 kts | 184° |
| 2026-05-07 03:17 | 35.37180 | -80.96555 | 2969 ft | 175 kts | 185° |
| 2026-05-07 03:17 | 35.36028 | -80.96460 | 3001 ft | 159 kts | 185° |
| 2026-05-07 03:18 | 35.34946 | -80.96372 | 2993 ft | 154 kts | 186° |
| 2026-05-07 03:18 | 35.33878 | -80.96287 | 2952 ft | 153 kts | 185° |
| 2026-05-07 03:18 | 35.32833 | -80.96196 | 2778 ft | 148 kts | 186° |
| 2026-05-07 03:18 | 35.31821 | -80.96106 | 2553 ft | 142 kts | 187° |
| 2026-05-07 03:19 | 35.30858 | -80.96023 | 2459 ft | 136 kts | 186° |
| 2026-05-07 03:19 | 35.29945 | -80.95943 | 2215 ft | 127 kts | 185° |
| 2026-05-07 03:19 | 35.29104 | -80.95869 | 2054 ft | 117 kts | 186° |
| 2026-05-07 03:19 | 35.28290 | -80.95803 | 1887 ft | 119 kts | 184° |
| 2026-05-07 03:20 | 35.27452 | -80.95730 | 1727 ft | 122 kts | 182° |
| 2026-05-07 03:20 | 35.26594 | -80.95656 | 1546 ft | 126 kts | 179° |
| 2026-05-07 03:20 | 35.25706 | -80.95577 | 1367 ft | 129 kts | 177° |
| 2026-05-07 03:20 | 35.24784 | -80.95497 | 1207 ft | 136 kts | 179° |
| 2026-05-07 03:21 | 35.23852 | -80.95425 | 1005 ft | 131 kts | 176° |
| 2026-05-07 03:21 | 35.22948 | -80.95341 | 830 ft | 132 kts | 178° |
| 2026-05-07 03:21 | 35.22047 | -80.95263 | 749 ft | 122 kts | 178° |
| 2026-05-07 03:21 | 35.21275 | -80.95199 | 740 ft | 99 kts | 174° |
| 2026-05-07 03:22 | 35.20735 | -80.95131 | 741 ft | 55 kts | 154° |
| 2026-05-07 03:22 | 35.20572 | -80.94964 | 737 ft | 15 kts | 70° |
| 2026-05-07 03:22 | 35.20669 | -80.94939 | 736 ft | 15 kts | 356° |
| 2026-05-07 03:22 | 35.20779 | -80.94949 | 735 ft | 17 kts | 356° |
| 2026-05-07 03:23 | 35.20915 | -80.94960 | 727 ft | 22 kts | 356° |
| 2026-05-07 03:23 | 35.21144 | -80.94978 | 735 ft | 31 kts | 356° |
| 2026-05-07 03:23 | 35.21328 | -80.94996 | 736 ft | 23 kts | 357° |
| 2026-05-07 03:23 | 35.21480 | -80.95001 | 736 ft | 21 kts | 358° |
| 2026-05-07 03:24 | 35.21610 | -80.95022 | 737 ft | 18 kts | 354° |
| 2026-05-07 03:24 | 35.21753 | -80.95035 | 737 ft | 22 kts | 1° |
| 2026-05-07 03:24 | 35.21868 | -80.95001 | 736 ft | 11 kts | 63° |
| 2026-05-07 03:24 | 35.21876 | -80.94870 | 734 ft | 21 kts | 86° |
| 2026-05-07 03:25 | 35.21891 | -80.94734 | 734 ft | 13 kts | 65° |
| 2026-05-07 03:25 | 35.21917 | -80.94664 | 735 ft | 0 kts | 65° |
| 2026-05-07 03:25 | 35.21924 | -80.94647 | 734 ft | 5 kts | 66° |
| 2026-05-07 03:26 | 35.21921 | -80.94614 | 735 ft | 4 kts | 100° |
| 2026-05-07 03:26 | 35.21916 | -80.94583 | 735 ft | 1 kts | 102° |
| 2026-05-07 03:26 | 35.21914 | -80.94570 | 735 ft | 0 kts | 101° |
| 2026-05-07 03:26 | 35.21914 | -80.94569 | 735 ft | 0 kts | 101° |